Main page
METAR-TAF:

METAR-TAF

Airports :

Birmingham Airport

Birmingham, England

latitude: 52-27N, longitude: 001-44W, elevation: 99 m

Current weather observation

The report was made 14 minutes ago, at 08:50 UTC
Wind 7 kt from the Southwest, varying between South and West/Southwest
Temperature 16°C
Humidity 77%
Pressure 1026 hPa
Visibility 10 km or more
Few clouds at a height of 1600 ft

METAR: EGBB 210850Z 22007KT 180V250 9999 FEW016 16/12 Q1026

Time: 10:04 (09:04 UTC)

Forecast

The report was made 4 hours and 11 minutes ago, at 04:53 UTC
Forecast valid from 21 at 06 UTC to 22 at 06 UTC
Wind 8 kt from the South/Southwest
Visibility 10 km or more
Few clouds at a height of 3000 ft
Probability 30% :
Temporary
from 21 at 12 UTC to 21 at 16 UTC
Visibility: 8000 m
rain showers
Probability 30% :
Temporary
from 22 at 04 UTC to 22 at 06 UTC
Broken clouds at a height of 1400 ft

TAF: EGBB 210453Z 2106/2206 21008KT 9999 FEW030 PROB30 TEMPO 2112/2116 8000 SHRA PROB30 TEMPO 2204/2206 BKN014

Weather observations and forecasts of more than 4000 airports (METAR and TAF reports).

The available stations are represented by yellow and red dots on the map.

Hover mouse over dot to see the name of the station.

Then click to see weather observations and forecasts.

To change the map : click on the green buttons with a black cross to zoom in, on the green button with a dash to zoom out, or on the green arrows for adjacent maps.


METAR-TAF: